Time;durP1;ratioP1;P1;durP2;ratioP2;P2;SDS_P1;SDS_P2;PMS_P1;PMS_P2;Temp;Humidity;BMP_temperature;BMP_pressure;BME280_temperature;BME280_humidity;BME280_pressure;Samples;Min_cycle;Max_cycle;Signal;HPM_P1;HPM_P2
2022/10/15 00:01:32;;;;;;;100.82;29.63;;;;;;;11.01;100.00;100666.97;5038591;28;20564;-67
2022/10/15 00:03:59;;;;;;;79.07;28.73;;;;;;;11.04;100.00;100667.59;5060476;28;20048;-67
2022/10/15 00:06:25;;;;;;;81.13;26.80;;;;;;;11.04;100.00;100670.25;5059410;28;20068;-66
2022/10/15 00:08:50;;;;;;;114.82;29.98;;;;;;;10.89;100.00;100677.50;5055236;28;20213;-66
2022/10/15 00:11:22;;;;;;;161.80;30.25;;;;;;;10.88;100.00;100678.44;5060192;28;20089;-67
2022/10/15 00:13:48;;;;;;;296.33;33.72;;;;;;;10.78;100.00;100666.69;5060826;28;20040;-68
2022/10/15 00:16:20;;;;;;;105.25;24.13;;;;;;;10.74;100.00;100672.31;5053636;28;20064;-67
2022/10/15 00:18:47;;;;;;;212.32;32.08;;;;;;;10.63;100.00;100663.22;5052379;28;20028;-67
2022/10/15 00:21:14;;;;;;;202.55;30.98;;;;;;;10.57;100.00;100655.66;5056461;28;20032;-67
2022/10/15 00:23:40;;;;;;;126.07;24.17;;;;;;;10.61;100.00;100659.81;5052329;28;20040;-67
2022/10/15 00:26:11;;;;;;;170.27;25.52;;;;;;;10.56;100.00;100661.94;5059787;28;20055;-68
2022/10/15 00:28:36;;;;;;;85.22;24.15;;;;;;;10.57;100.00;100660.97;5059233;28;20629;-67
2022/10/15 00:31:05;;;;;;;123.35;24.08;;;;;;;10.50;100.00;100658.84;5041978;28;20040;-66
2022/10/15 00:33:30;;;;;;;94.70;25.20;;;;;;;10.47;100.00;100662.53;5057105;28;20051;-68
2022/10/15 00:36:05;;;;;;;71.43;20.38;;;;;;;10.45;100.00;100667.13;5056556;28;20032;-68
2022/10/15 00:38:31;;;;;;;52.47;19.13;;;;;;;10.33;100.00;100670.59;5056956;28;20037;-68
2022/10/15 00:40:57;;;;;;;42.90;15.65;;;;;;;10.26;100.00;100672.81;5041339;28;20052;-68
2022/10/15 00:43:43;;;;;;;66.70;18.33;;;;;;;10.28;100.00;100667.34;5009386;28;20053;-68
2022/10/15 00:46:17;;;;;;;64.45;21.23;;;;;;;10.21;100.00;100666.03;5050315;28;20036;-68
2022/10/15 00:48:47;;;;;;;79.50;18.50;;;;;;;10.09;100.00;100670.31;5037239;28;20040;-67
2022/10/15 00:51:14;;;;;;;39.95;15.50;;;;;;;10.05;100.00;100676.81;5054617;28;20117;-67
2022/10/15 00:53:40;;;;;;;67.75;18.58;;;;;;;10.06;100.00;100675.84;5033986;28;20036;-67
2022/10/15 00:56:06;;;;;;;55.05;16.95;;;;;;;10.01;100.00;100665.50;5059494;28;20454;-67
2022/10/15 00:58:33;;;;;;;62.42;20.90;;;;;;;9.91;100.00;100668.84;5036591;28;20127;-67
2022/10/15 01:00:59;;;;;;;43.50;19.75;;;;;;;9.96;100.00;100670.25;5040391;28;20028;-67
2022/10/15 01:03:25;;;;;;;59.17;20.17;;;;;;;9.80;100.00;100665.06;5059404;28;20497;-67
2022/10/15 01:05:52;;;;;;;55.97;20.83;;;;;;;9.85;100.00;100656.78;5058637;28;20040;-67
2022/10/15 01:08:17;;;;;;;59.35;20.00;;;;;;;9.84;100.00;100655.91;5040850;28;20059;-67
2022/10/15 01:11:10;;;;;;;37.40;17.77;;;;;;;9.74;100.00;100653.91;5059631;28;20036;-68
2022/10/15 01:13:42;;;;;;;;;;;;;;;9.66;100.00;100656.22;5036427;28;20033;-67
2022/10/15 01:16:21;;;;;;;;;;;;;;;9.68;100.00;100651.63;5039046;28;19975;-67
2022/10/15 01:19:00;;;;;;;80.45;21.08;;;;;;;9.61;100.00;100656.50;5053180;28;20007;-67
2022/10/15 01:21:53;;;;;;;91.35;21.52;;;;;;;9.59;100.00;100656.59;5048467;28;20045;-68
2022/10/15 01:24:29;;;;;;;268.48;27.58;;;;;;;9.54;100.00;100656.03;5057895;28;20051;-68
2022/10/15 01:27:23;;;;;;;67.68;18.40;;;;;;;9.49;100.00;100657.28;5020162;28;20615;-66
2022/10/15 01:30:21;;;;;;;38.67;15.50;;;;;;;9.45;100.00;100647.78;5052921;28;20139;-67
2022/10/15 01:33:07;;;;;;;53.83;15.57;;;;;;;9.37;100.00;100639.38;5052586;28;20161;-66
2022/10/15 01:36:03;;;;;;;21.85;11.07;;;;;;;9.18;100.00;100645.81;5039352;28;20042;-68
2022/10/15 01:38:32;;;;;;;83.55;17.42;;;;;;;9.26;100.00;100642.72;5038818;28;20043;-67
2022/10/15 01:41:09;;;;;;;115.50;22.05;;;;;;;9.19;100.00;100641.38;5032198;28;20040;-68
2022/10/15 01:43:43;;;;;;;106.38;22.42;;;;;;;9.30;100.00;100639.78;5035993;28;20555;-67
2022/10/15 01:46:56;;;;;;;50.97;19.35;;;;;;;9.35;100.00;100636.84;5056069;28;20052;-68
2022/10/15 01:49:27;;;;;;;44.00;20.40;;;;;;;9.47;100.00;100635.22;5048519;28;20063;-67
2022/10/15 01:51:54;;;;;;;60.65;21.98;;;;;;;9.52;100.00;100633.97;5058829;28;20033;-67
2022/10/15 01:54:23;;;;;;;60.42;23.70;;;;;;;9.60;100.00;100630.84;5055966;28;20037;-68
2022/10/15 01:56:52;;;;;;;64.78;22.92;;;;;;;9.62;100.00;100626.25;5022189;28;20036;-66
2022/10/15 01:59:28;;;;;;;37.33;17.65;;;;;;;9.62;100.00;100628.06;5049240;28;20869;-67
2022/10/15 02:01:54;;;;;;;37.95;17.05;;;;;;;9.47;100.00;100622.75;5039221;28;20044;-68
2022/10/15 02:04:30;;;;;;;35.72;17.05;;;;;;;9.57;100.00;100628.34;5030839;28;20090;-67
2022/10/15 02:07:09;;;;;;;34.78;16.73;;;;;;;9.62;100.00;100623.59;5057342;28;20817;-68
2022/10/15 02:09:49;;;;;;;37.95;16.52;;;;;;;9.55;100.00;100614.31;5052621;28;20109;-68
2022/10/15 02:12:21;;;;;;;38.20;17.23;;;;;;;9.59;100.00;100619.34;5032964;28;20043;-67
2022/10/15 02:15:17;;;;;;;36.50;17.42;;;;;;;9.47;100.00;100619.25;5031773;28;20052;-68
2022/10/15 02:18:03;;;;;;;47.00;21.52;;;;;;;9.61;100.00;100613.91;5056954;28;20048;-67
2022/10/15 02:20:43;;;;;;;43.58;19.77;;;;;;;9.64;100.00;100624.38;5055573;28;20044;-66
2022/10/15 02:23:17;;;;;;;55.60;21.63;;;;;;;9.73;100.00;100621.09;5036040;28;20040;-66
2022/10/15 02:25:44;;;;;;;57.97;22.58;;;;;;;9.77;100.00;100619.13;5057373;28;20137;-66
2022/10/15 02:28:14;;;;;;;62.88;26.25;;;;;;;9.78;100.00;100620.81;5036366;28;20186;-67
2022/10/15 02:30:43;;;;;;;56.38;23.88;;;;;;;9.87;100.00;100620.22;5029791;28;20152;-67
2022/10/15 02:33:11;;;;;;;64.28;26.52;;;;;;;9.89;100.00;100610.34;5034785;28;20077;-67
2022/10/15 02:35:38;;;;;;;57.15;25.98;;;;;;;9.92;100.00;100602.16;5037759;28;20102;-66
2022/10/15 02:38:09;;;;;;;55.30;25.40;;;;;;;9.95;100.00;100601.97;5055253;28;20090;-66
2022/10/15 02:40:36;;;;;;;54.85;25.50;;;;;;;10.02;100.00;100610.41;5056609;28;20123;-65
2022/10/15 02:43:05;;;;;;;58.00;25.67;;;;;;;10.07;100.00;100611.81;5056958;28;20059;-66
2022/10/15 02:45:31;;;;;;;59.80;26.90;;;;;;;10.16;100.00;100601.53;5036179;28;20075;-67
2022/10/15 02:47:57;;;;;;;75.00;30.15;;;;;;;10.25;100.00;100595.63;5039464;28;20094;-67
2022/10/15 02:50:23;;;;;;;73.25;30.58;;;;;;;10.32;100.00;100597.78;5039758;28;20435;-67
2022/10/15 02:52:48;;;;;;;72.32;30.35;;;;;;;10.35;100.00;100594.91;5039383;28;20032;-68
2022/10/15 02:55:14;;;;;;;75.50;32.75;;;;;;;10.47;100.00;100587.03;5035747;28;20033;-68
2022/10/15 02:57:40;;;;;;;88.47;33.45;;;;;;;10.60;100.00;100587.94;5026663;28;20041;-67
2022/10/15 03:00:07;;;;;;;78.85;34.58;;;;;;;10.54;100.00;100581.22;5032288;28;20028;-67
2022/10/15 03:02:33;;;;;;;89.57;36.38;;;;;;;10.63;100.00;100580.56;5036730;28;20048;-66
2022/10/15 03:04:59;;;;;;;79.25;34.00;;;;;;;10.68;100.00;100574.06;5023471;28;20040;-67
2022/10/15 03:07:24;;;;;;;82.47;35.30;;;;;;;10.60;100.00;100571.94;5055175;28;20057;-66
2022/10/15 03:09:50;;;;;;;80.57;33.45;;;;;;;10.70;100.00;100565.03;5042688;28;20461;-67
2022/10/15 03:12:15;;;;;;;77.15;32.33;;;;;;;10.69;100.00;100562.44;5027229;28;20033;-68
2022/10/15 03:14:41;;;;;;;85.88;35.22;;;;;;;10.71;100.00;100556.06;5040789;28;20028;-66
2022/10/15 03:17:06;;;;;;;79.38;33.58;;;;;;;10.76;100.00;100561.09;5045949;28;20117;-67
2022/10/15 03:19:32;;;;;;;75.05;34.10;;;;;;;10.72;100.00;100563.09;5042396;28;20040;-67
2022/10/15 03:21:57;;;;;;;75.18;32.95;;;;;;;10.72;100.00;100559.56;5061859;28;20079;-67
2022/10/15 03:24:25;;;;;;;88.40;35.53;;;;;;;10.71;100.00;100561.38;5044459;28;20039;-67
2022/10/15 03:26:51;;;;;;;87.57;35.85;;;;;;;10.69;100.00;100554.44;5043184;28;20105;-67
2022/10/15 03:29:16;;;;;;;83.07;34.67;;;;;;;10.62;100.00;100557.53;5044000;28;20536;-67
2022/10/15 03:31:57;;;;;;;85.88;34.70;;;;;;;10.72;100.00;100552.44;5035462;28;20122;-67
2022/10/15 03:34:22;;;;;;;87.35;36.72;;;;;;;10.67;100.00;100553.69;5042753;28;20029;-66
2022/10/15 03:36:47;;;;;;;93.10;37.17;;;;;;;10.66;100.00;100550.19;5042318;28;20040;-67
2022/10/15 03:39:13;;;;;;;98.65;38.28;;;;;;;10.70;100.00;100546.34;5043537;28;20036;-68
2022/10/15 03:41:39;;;;;;;101.50;37.70;;;;;;;10.61;100.00;100550.50;5041590;28;20093;-68
2022/10/15 03:44:06;;;;;;;91.28;37.13;;;;;;;10.69;100.00;100549.97;5040227;28;20036;-68
2022/10/15 03:46:33;;;;;;;92.13;35.53;;;;;;;10.50;100.00;100554.88;5037009;28;20071;-68
2022/10/15 03:49:00;;;;;;;100.72;38.53;;;;;;;10.59;100.00;100548.88;5037431;28;20086;-68
2022/10/15 03:51:25;;;;;;;93.68;36.58;;;;;;;10.69;100.00;100546.44;5059881;28;20072;-67
2022/10/15 03:53:56;;;;;;;98.57;37.08;;;;;;;10.69;100.00;100544.63;5037447;28;20051;-68
2022/10/15 03:56:21;;;;;;;93.53;37.85;;;;;;;10.78;100.00;100537.81;5041735;28;20032;-68
2022/10/15 03:58:48;;;;;;;104.53;39.25;;;;;;;10.76;100.00;100543.25;5043777;28;20037;-67
2022/10/15 04:01:16;;;;;;;105.40;38.05;;;;;;;10.85;100.00;100539.13;5052370;28;20532;-67
2022/10/15 04:03:42;;;;;;;97.85;40.28;;;;;;;10.83;100.00;100541.88;5035581;28;20103;-68
2022/10/15 04:06:08;;;;;;;102.93;37.78;;;;;;;10.93;100.00;100547.41;5040865;28;21019;-68
2022/10/15 04:08:34;;;;;;;104.22;37.20;;;;;;;11.03;100.00;100537.81;5032204;28;20414;-67
2022/10/15 04:11:10;;;;;;;104.10;38.92;;;;;;;11.06;100.00;100544.75;5039664;28;20090;-66
2022/10/15 04:13:36;;;;;;;106.15;39.75;;;;;;;11.07;100.00;100535.78;5022487;28;20036;-67
2022/10/15 04:16:05;;;;;;;107.53;39.22;;;;;;;11.07;100.00;100549.97;5037058;28;20402;-68
2022/10/15 04:18:31;;;;;;;108.30;38.72;;;;;;;11.20;100.00;100535.78;5034715;28;20033;-66
2022/10/15 04:20:58;;;;;;;99.28;40.30;;;;;;;11.23;100.00;100538.22;5037698;28;20127;-68
2022/10/15 04:23:24;;;;;;;108.55;41.60;;;;;;;11.28;100.00;100541.41;5035689;28;20537;-66
2022/10/15 04:26:08;;;;;;;102.43;40.85;;;;;;;11.20;100.00;100539.31;5040535;28;20175;-67
2022/10/15 04:28:34;;;;;;;107.95;39.75;;;;;;;11.25;100.00;100549.66;5039104;28;20068;-68
2022/10/15 04:31:01;;;;;;;96.28;39.03;;;;;;;11.30;100.00;100545.69;5039234;28;20033;-67
2022/10/15 04:33:27;;;;;;;104.43;38.75;;;;;;;11.31;100.00;100547.41;5036900;28;20090;-68
2022/10/15 04:36:07;;;;;;;102.80;39.15;;;;;;;11.35;100.00;100548.03;5037538;28;20126;-67
2022/10/15 04:38:51;;;;;;;94.88;38.03;;;;;;;11.33;100.00;100556.13;5033299;28;20040;-68
2022/10/15 04:41:25;;;;;;;97.95;39.08;;;;;;;11.28;100.00;100554.75;5030853;28;20033;-68
2022/10/15 04:43:57;;;;;;;109.60;39.85;;;;;;;11.23;100.00;100562.25;5029937;28;20034;-68
2022/10/15 04:46:24;;;;;;;104.47;41.20;;;;;;;11.21;100.00;100562.34;5035444;28;20090;-66
2022/10/15 04:48:51;;;;;;;97.88;39.00;;;;;;;11.29;100.00;100561.81;5042772;28;20028;-68
2022/10/15 04:51:19;;;;;;;95.20;38.22;;;;;;;11.24;100.00;100566.63;5035283;28;20043;-69
2022/10/15 04:54:00;;;;;;;;;;;;;;;11.20;100.00;100565.16;5037150;28;20145;-68
2022/10/15 04:56:27;;;;;;;101.38;37.22;;;;;;;11.10;100.00;100557.78;5037526;28;19929;-69
2022/10/15 04:58:53;;;;;;;105.57;36.22;;;;;;;11.11;100.00;100553.28;5037842;28;20032;-69
2022/10/15 05:01:20;;;;;;;103.57;41.10;;;;;;;11.11;100.00;100548.81;5035573;28;20789;-70
2022/10/15 05:04:11;;;;;;;94.95;37.85;;;;;;;11.16;100.00;100551.16;5037565;28;20033;-70
2022/10/15 05:06:38;;;;;;;108.15;39.15;;;;;;;11.18;100.00;100551.88;5031611;28;20026;-67
2022/10/15 05:09:15;;;;;;;100.95;39.60;;;;;;;11.21;100.00;100550.84;5037767;28;20057;-69
2022/10/15 05:11:46;;;;;;;100.22;39.33;;;;;;;11.15;100.00;100542.28;5037060;28;20119;-69
2022/10/15 05:14:12;;;;;;;108.00;40.55;;;;;;;11.24;100.00;100539.91;5037327;28;20040;-68
2022/10/15 05:16:38;;;;;;;110.50;39.40;;;;;;;11.28;100.00;100542.25;5034523;28;20029;-67
2022/10/15 05:19:06;;;;;;;109.30;41.17;;;;;;;11.27;100.00;100540.56;5025565;28;20037;-69
2022/10/15 05:21:33;;;;;;;117.68;42.70;;;;;;;11.40;100.00;100540.56;5030364;28;20076;-68
2022/10/15 05:24:04;;;;;;;128.57;46.28;;;;;;;11.44;100.00;100539.34;5028588;28;20064;-69
2022/10/15 05:26:53;;;;;;;124.00;44.25;;;;;;;11.48;100.00;100542.66;5035424;28;20039;-69
2022/10/15 05:29:21;;;;;;;119.88;43.53;;;;;;;11.46;100.00;100534.78;5030452;28;20087;-68
2022/10/15 05:31:50;;;;;;;139.48;46.65;;;;;;;11.50;100.00;100536.25;5026277;28;20049;-68
2022/10/15 05:34:19;;;;;;;112.80;44.03;;;;;;;11.48;100.00;100532.84;5036261;28;20592;-67
2022/10/15 05:37:07;;;;;;;123.22;45.95;;;;;;;11.52;100.00;100545.00;5028072;28;20049;-69
2022/10/15 05:39:33;;;;;;;143.93;46.38;;;;;;;11.49;100.00;100541.69;5037074;28;20049;-68
2022/10/15 05:41:59;;;;;;;120.82;46.63;;;;;;;11.53;100.00;100552.03;5028017;28;20036;-68
2022/10/15 05:44:36;;;;;;;145.25;48.72;;;;;;;11.50;100.00;100549.63;5035998;28;20048;-69
2022/10/15 05:47:02;;;;;;;147.95;49.10;;;;;;;11.57;100.00;100558.88;5036562;28;20044;-69
2022/10/15 05:49:27;;;;;;;144.77;50.03;;;;;;;11.58;100.00;100555.22;5032596;28;20036;-68
2022/10/15 05:52:15;;;;;;;146.82;49.13;;;;;;;11.58;100.00;100557.91;5034712;28;20124;-68
2022/10/15 05:55:04;;;;;;;146.27;50.60;;;;;;;11.65;100.00;100569.03;4996678;28;20041;-68
2022/10/15 05:57:30;;;;;;;154.52;49.72;;;;;;;11.64;100.00;100562.78;4996268;28;20096;-68
2022/10/15 05:59:55;;;;;;;168.75;51.65;;;;;;;11.68;100.00;100564.28;4987664;28;20058;-68
2022/10/15 06:02:20;;;;;;;159.38;51.60;;;;;;;11.78;100.00;100574.31;4995018;28;20054;-68
2022/10/15 06:04:47;;;;;;;168.52;52.05;;;;;;;11.78;100.00;100574.31;4980932;28;20034;-68
2022/10/15 06:07:12;;;;;;;171.00;52.80;;;;;;;11.85;100.00;100570.28;4979660;28;20049;-69
2022/10/15 06:09:38;;;;;;;171.25;55.70;;;;;;;11.86;100.00;100572.81;4993829;28;20740;-69
2022/10/15 06:12:03;;;;;;;173.20;55.80;;;;;;;11.89;100.00;100572.59;4996140;28;20057;-67
2022/10/15 06:14:29;;;;;;;183.77;55.92;;;;;;;11.98;100.00;100571.06;4996197;28;20042;-67
2022/10/15 06:16:54;;;;;;;178.55;54.97;;;;;;;12.03;100.00;100568.06;4996394;28;20049;-67
2022/10/15 06:19:20;;;;;;;210.45;58.05;;;;;;;11.97;100.00;100563.16;4997151;28;20112;-68
2022/10/15 06:21:46;;;;;;;208.25;57.08;;;;;;;11.98;100.00;100568.41;4996883;28;20073;-68
2022/10/15 06:24:11;;;;;;;206.38;56.42;;;;;;;11.99;100.00;100563.91;4996896;28;20046;-69
2022/10/15 06:26:38;;;;;;;192.95;55.63;;;;;;;12.00;100.00;100563.81;4995789;28;20131;-68
2022/10/15 06:29:03;;;;;;;208.02;57.05;;;;;;;12.02;100.00;100566.34;4977109;28;20598;-68
2022/10/15 06:31:30;;;;;;;230.30;59.45;;;;;;;12.03;100.00;100566.22;5005361;28;20391;-69
2022/10/15 06:33:55;;;;;;;193.32;54.45;;;;;;;12.07;100.00;100559.69;5036010;28;20063;-67
2022/10/15 06:36:23;;;;;;;221.25;57.90;;;;;;;12.06;100.00;100566.03;5033812;28;20046;-67
2022/10/15 06:38:48;;;;;;;214.15;59.50;;;;;;;12.08;100.00;100568.56;5035227;28;20073;-68
2022/10/15 06:41:15;;;;;;;202.43;54.33;;;;;;;12.15;100.00;100570.69;5036489;28;20083;-67
2022/10/15 06:43:40;;;;;;;195.43;52.50;;;;;;;12.13;100.00;100569.94;5039665;28;20052;-65
2022/10/15 06:46:06;;;;;;;187.95;54.10;;;;;;;12.19;100.00;100572.13;5037841;28;20045;-66
2022/10/15 06:48:32;;;;;;;199.20;55.88;;;;;;;12.22;100.00;100576.41;5033209;28;20064;-67
2022/10/15 06:50:59;;;;;;;186.32;56.78;;;;;;;12.26;100.00;100577.06;5033104;28;20044;-67
2022/10/15 06:53:25;;;;;;;216.65;59.22;;;;;;;12.32;100.00;100582.78;5039169;28;20037;-66
2022/10/15 06:55:51;;;;;;;184.18;52.13;;;;;;;12.37;100.00;100585.97;5038976;28;20871;-67
2022/10/15 06:58:16;;;;;;;184.52;51.88;;;;;;;12.40;100.00;100582.22;5037442;28;20142;-68
2022/10/15 07:00:41;;;;;;;181.48;51.85;;;;;;;12.33;100.00;100576.47;5039909;28;20573;-67
2022/10/15 07:03:07;;;;;;;181.20;49.28;;;;;;;12.34;100.00;100577.31;5037977;28;20048;-67
2022/10/15 07:05:33;;;;;;;193.82;51.25;;;;;;;12.34;100.00;100574.63;5030360;28;20072;-67
2022/10/15 07:07:59;;;;;;;147.75;48.38;;;;;;;12.39;100.00;100567.97;5049032;28;20040;-68
2022/10/15 07:10:27;;;;;;;155.45;45.83;;;;;;;12.34;100.00;100574.63;5059625;28;20071;-69
2022/10/15 07:12:53;;;;;;;146.98;44.75;;;;;;;12.36;100.00;100580.75;5047822;28;20116;-67
2022/10/15 07:15:20;;;;;;;142.23;45.10;;;;;;;12.37;100.00;100577.94;5055949;28;20075;-67
2022/10/15 07:17:49;;;;;;;136.05;42.97;;;;;;;12.39;100.00;100584.00;5059757;28;20045;-67
2022/10/15 07:20:15;;;;;;;146.25;42.28;;;;;;;12.41;100.00;100583.94;5058094;28;20048;-68
2022/10/15 07:22:41;;;;;;;131.10;42.13;;;;;;;12.50;100.00;100583.25;5055360;28;20048;-68
2022/10/15 07:25:08;;;;;;;131.90;41.90;;;;;;;12.55;100.00;100586.41;5056933;28;20040;-67
2022/10/15 07:27:34;;;;;;;125.28;38.80;;;;;;;12.65;100.00;100584.75;5055830;28;20044;-68
2022/10/15 07:30:00;;;;;;;136.45;38.30;;;;;;;12.58;100.00;100574.63;5022566;28;20050;-67
2022/10/15 07:32:25;;;;;;;113.95;35.72;;;;;;;12.62;100.00;100584.13;5041348;28;20039;-67
2022/10/15 07:34:50;;;;;;;124.47;36.78;;;;;;;12.73;100.00;100584.16;5039960;28;20052;-67
2022/10/15 07:37:16;;;;;;;110.13;37.70;;;;;;;12.82;100.00;100582.59;5057811;28;20051;-67
2022/10/15 07:39:41;;;;;;;115.55;36.03;;;;;;;12.93;100.00;100579.94;5060000;28;20036;-68
2022/10/15 07:42:07;;;;;;;134.75;36.92;;;;;;;13.04;100.00;100577.28;5059395;28;20037;-68
2022/10/15 07:44:32;;;;;;;112.18;36.17;;;;;;;13.17;100.00;100574.50;5059746;28;20123;-68
2022/10/15 07:46:58;;;;;;;104.20;35.47;;;;;;;13.30;100.00;100575.25;5060620;28;20475;-67
2022/10/15 07:49:23;;;;;;;105.55;34.78;;;;;;;13.50;100.00;100570.13;5057188;28;20110;-68
2022/10/15 07:51:49;;;;;;;99.70;35.67;;;;;;;13.41;100.00;100566.41;5059857;28;20040;-67
2022/10/15 07:54:14;;;;;;;99.63;34.35;;;;;;;13.35;100.00;100572.22;5058044;28;20040;-68
2022/10/15 07:56:39;;;;;;;84.20;30.92;;;;;;;13.35;100.00;100558.81;5057701;28;20097;-67
2022/10/15 07:59:07;;;;;;;80.57;29.95;;;;;;;13.44;100.00;100569.66;5050408;28;20044;-68
2022/10/15 08:01:32;;;;;;;88.72;28.67;;;;;;;13.42;100.00;100568.09;5053505;28;20063;-68
2022/10/15 08:03:58;;;;;;;75.68;26.85;;;;;;;13.43;100.00;100565.28;5052118;28;20118;-68
2022/10/15 08:06:23;;;;;;;73.55;28.30;;;;;;;13.54;100.00;100564.41;5057931;28;20025;-68
2022/10/15 08:08:49;;;;;;;79.80;28.67;;;;;;;13.56;100.00;100561.63;5033851;28;20798;-68
2022/10/15 08:11:15;;;;;;;70.53;27.42;;;;;;;13.62;100.00;100569.19;5034929;28;20856;-66
2022/10/15 08:13:42;;;;;;;76.05;29.13;;;;;;;13.89;100.00;100563.38;5055823;28;20123;-69
2022/10/15 08:16:10;;;;;;;57.70;24.40;;;;;;;14.08;100.00;100568.94;5039651;28;20120;-66
2022/10/15 08:18:36;;;;;;;62.70;27.85;;;;;;;14.11;100.00;100578.59;5053969;28;20105;-68
2022/10/15 08:21:02;;;;;;;59.65;25.23;;;;;;;14.17;100.00;100570.03;5057001;28;20060;-67
2022/10/15 08:23:28;;;;;;;59.33;24.80;;;;;;;14.33;100.00;100574.97;5057883;28;20055;-68
2022/10/15 08:25:53;;;;;;;54.70;23.95;;;;;;;14.31;100.00;100572.41;5052411;28;20044;-68
2022/10/15 08:28:19;;;;;;;54.30;25.92;;;;;;;14.22;100.00;100571.34;5049051;28;20044;-68
2022/10/15 08:30:44;;;;;;;53.53;25.05;;;;;;;14.26;100.00;100569.28;5037785;28;20473;-66
2022/10/15 08:33:11;;;;;;;59.67;24.85;;;;;;;14.55;100.00;100558.78;5040017;28;20032;-66
2022/10/15 08:35:44;;;;;;;49.15;23.48;;;;;;;15.00;100.00;100567.44;5057856;28;20048;-67
2022/10/15 08:38:10;;;;;;;48.80;24.27;;;;;;;15.27;100.00;100555.28;5057621;28;20105;-68
2022/10/15 08:40:36;;;;;;;45.33;22.58;;;;;;;15.19;100.00;100550.56;5055288;28;20044;-68
2022/10/15 08:43:04;;;;;;;46.97;23.67;;;;;;;14.97;100.00;100546.22;5058348;28;20646;-68
2022/10/15 08:45:35;;;;;;;47.65;22.00;;;;;;;15.21;100.00;100550.44;5037710;28;20040;-67
2022/10/15 08:48:02;;;;;;;42.20;21.25;;;;;;;15.02;100.00;100543.16;5057459;28;20032;-67
2022/10/15 08:50:46;;;;;;;39.50;21.48;;;;;;;15.18;100.00;100539.97;5052716;28;20044;-67
2022/10/15 08:53:17;;;;;;;38.70;20.17;;;;;;;14.85;100.00;100538.38;5055793;28;20119;-67
2022/10/15 08:55:49;;;;;;;39.80;18.60;;;;;;;14.85;100.00;100533.00;5056577;28;20136;-67
2022/10/15 08:58:22;;;;;;;40.75;19.67;;;;;;;14.80;100.00;100528.03;5050877;28;20040;-66
2022/10/15 09:00:56;;;;;;;41.97;20.98;;;;;;;14.84;100.00;100520.56;5060884;28;20040;-66
2022/10/15 09:03:27;;;;;;;43.05;19.83;;;;;;;15.20;100.00;100517.34;5049971;28;20235;-67
2022/10/15 09:06:14;;;;;;;39.88;20.83;;;;;;;15.28;100.00;100516.69;5037278;28;20044;-66
2022/10/15 09:09:04;;;;;;;44.08;22.25;;;;;;;15.07;100.00;100514.06;5035011;28;20052;-66
2022/10/15 09:11:35;;;;;;;39.28;20.10;;;;;;;15.20;100.00;100503.91;5051412;28;20071;-67
2022/10/15 09:14:04;;;;;;;49.67;21.40;;;;;;;15.24;100.00;100507.19;5049935;28;20519;-66
2022/10/15 09:16:37;;;;;;;43.83;19.75;;;;;;;15.27;100.00;100512.31;5055649;28;20158;-67
2022/10/15 09:19:14;;;;;;;41.00;18.88;;;;;;;15.49;100.00;100509.41;5047894;28;20040;-67
2022/10/15 09:21:40;;;;;;;38.80;19.90;;;;;;;15.60;100.00;100505.75;5057795;28;20091;-67
2022/10/15 09:24:10;;;;;;;33.17;18.08;;;;;;;15.44;100.00;100508.97;5054254;28;20040;-67
2022/10/15 09:26:50;;;;;;;29.33;16.85;;;;;;;15.59;100.00;100506.75;5056144;28;20082;-66
2022/10/15 09:29:18;;;;;;;34.63;17.30;;;;;;;15.60;100.00;100505.75;5052721;28;20047;-66
2022/10/15 09:32:19;;;;;;;34.05;17.80;;;;;;;15.50;100.00;100496.81;5049930;28;20510;-67
2022/10/15 09:34:59;;;;;;;36.25;17.45;;;;;;;15.75;100.00;100495.47;5019687;28;20185;-67
2022/10/15 09:37:35;;;;;;;34.33;17.23;;;;;;;15.83;100.00;100490.28;5020008;28;20129;-67
2022/10/15 09:40:18;;;;;;;32.80;16.55;;;;;;;15.96;100.00;100480.06;5052002;28;20052;-67
2022/10/15 09:42:44;;;;;;;27.02;14.85;;;;;;;16.22;100.00;100474.16;5037573;28;20056;-68
2022/10/15 09:45:14;;;;;;;27.15;14.65;;;;;;;16.19;100.00;100472.56;5055939;28;20066;-67
2022/10/15 09:47:41;;;;;;;29.80;14.90;;;;;;;16.01;100.00;100485.03;5035180;28;20040;-67
2022/10/15 09:50:09;;;;;;;25.00;14.60;;;;;;;15.94;100.00;100483.91;5057128;28;20048;-67
2022/10/15 09:52:34;;;;;;;26.10;14.02;;;;;;;16.34;100.00;100485.59;5055980;28;20310;-67
2022/10/15 09:55:30;;;;;;;26.88;14.68;;;;;;;16.49;100.00;100476.09;5055888;28;20043;-67
2022/10/15 09:58:01;;;;;;;25.23;13.73;;;;;;;16.41;100.00;100468.72;5033640;28;20810;-66
2022/10/15 10:00:51;;;;;;;28.80;14.93;;;;;;;16.67;100.00;100458.19;5055336;28;20040;-67
2022/10/15 10:03:16;;;;;;;22.58;12.93;;;;;;;16.63;100.00;100459.50;5048796;28;20052;-66
2022/10/15 10:05:42;;;;;;;24.23;13.02;;;;;;;16.75;100.00;100447.56;5053545;28;20032;-67
2022/10/15 10:08:18;;;;;;;23.67;12.57;;;;;;;17.25;100.00;100446.38;5054850;28;20485;-67
2022/10/15 10:10:45;;;;;;;21.40;11.65;;;;;;;17.17;100.00;100444.44;5056503;28;20792;-67
2022/10/15 10:13:40;;;;;;;23.05;11.63;;;;;;;17.09;100.00;100442.47;5038175;28;20051;-66
2022/10/15 10:16:08;;;;;;;18.20;9.95;;;;;;;16.96;100.00;100451.88;5054255;28;20140;-67
2022/10/15 10:18:36;;;;;;;20.35;11.18;;;;;;;16.85;100.00;100446.69;5057811;28;20036;-67
2022/10/15 10:21:05;;;;;;;19.10;11.35;;;;;;;16.67;100.00;100454.66;5060581;28;20074;-67
2022/10/15 10:23:33;;;;;;;21.80;10.95;;;;;;;16.99;100.00;100438.13;5057280;28;20036;-67
2022/10/15 10:26:02;;;;;;;23.27;12.07;;;;;;;16.92;100.00;100437.00;5059643;28;20845;-67
2022/10/15 10:28:55;;;;;;;24.98;12.30;;;;;;;16.25;100.00;100442.41;5056799;28;20080;-67
2022/10/15 10:31:30;;;;;;;25.30;12.48;;;;;;;15.79;100.00;100441.28;5039712;28;20046;-66
2022/10/15 10:33:58;;;;;;;26.55;13.55;;;;;;;15.88;100.00;100441.44;5058204;28;20752;-67
2022/10/15 10:36:29;;;;;;;25.67;13.63;;;;;;;15.73;100.00;100449.06;5056543;28;20131;-67
2022/10/15 10:39:13;;;;;;;30.95;14.77;;;;;;;15.74;100.00;100435.50;5060794;28;20051;-66
2022/10/15 10:42:02;;;;;;;30.13;15.95;;;;;;;15.68;100.00;100443.28;5058106;28;20049;-67
2022/10/15 10:44:37;;;;;;;29.15;14.70;;;;;;;15.70;100.00;100435.91;5056075;28;20040;-66
2022/10/15 10:47:23;;;;;;;32.38;15.77;;;;;;;15.59;100.00;100425.25;5057226;28;20389;-66
2022/10/15 10:49:54;;;;;;;33.65;15.57;;;;;;;15.58;100.00;100431.63;5041396;28;20054;-66
2022/10/15 10:52:31;;;;;;;30.75;15.10;;;;;;;15.54;100.00;100425.69;5040261;28;20039;-67
2022/10/15 10:54:59;;;;;;;30.60;15.27;;;;;;;15.41;100.00;100430.44;5056769;28;20139;-66
2022/10/15 10:57:45;;;;;;;29.88;14.45;;;;;;;15.39;100.00;100422.53;5058746;28;20029;-67
2022/10/15 11:00:19;;;;;;;29.27;13.57;;;;;;;15.52;100.00;100422.28;5054861;28;20044;-66
2022/10/15 11:02:47;;;;;;;26.88;13.45;;;;;;;15.64;100.00;100426.56;5057137;28;20067;-67
2022/10/15 11:05:21;;;;;;;24.10;12.02;;;;;;;15.57;100.00;100421.88;5055146;28;20032;-66
2022/10/15 11:07:46;;;;;;;28.10;13.23;;;;;;;15.68;100.00;100419.94;5056507;28;20040;-67
2022/10/15 11:10:22;;;;;;;21.83;11.30;;;;;;;15.56;100.00;100421.00;5054515;28;20033;-66
2022/10/15 11:13:02;;;;;;;24.30;11.25;;;;;;;15.62;100.00;100419.63;5037103;28;20032;-66
2022/10/15 11:15:52;;;;;;;21.95;11.75;;;;;;;15.62;100.00;100420.47;5057422;28;20093;-66
2022/10/15 11:18:59;;;;;;;26.58;12.60;;;;;;;15.43;100.00;100418.59;5054052;28;20070;-66